createdAt,value
2018-08-23T00:00:36.801Z,8.30
2018-08-23T00:03:12.931Z,9.07
2018-08-23T00:05:45.363Z,6.47
2018-08-23T00:08:13.642Z,7.03
2018-08-23T00:10:41.893Z,7.50
2018-08-23T00:13:10.069Z,8.43
2018-08-23T00:15:38.275Z,7.50
2018-08-23T00:18:06.477Z,7.57
2018-08-23T00:20:36.204Z,7.50
2018-08-23T00:23:05.089Z,7.40
2018-08-23T00:25:33.777Z,6.40
2018-08-23T00:28:02.100Z,9.27
2018-08-23T00:30:31.354Z,7.63
2018-08-23T00:33:00.841Z,9.27
2018-08-23T00:35:32.206Z,7.47
2018-08-23T00:38:01.008Z,9.77
2018-08-23T00:40:29.211Z,7.33
2018-08-23T00:43:02.731Z,7.53
2018-08-23T00:45:30.925Z,8.10
2018-08-23T00:47:59.234Z,9.40
2018-08-23T00:53:04.128Z,9.07
2018-08-23T00:55:32.310Z,9.40
2018-08-23T00:58:00.598Z,9.37
2018-08-23T01:00:28.919Z,9.40
2018-08-23T01:02:58.688Z,8.07
2018-08-23T01:05:32.186Z,8.37
2018-08-23T01:08:00.436Z,8.70
2018-08-23T01:10:28.654Z,9.77
2018-08-23T01:13:02.152Z,7.40
2018-08-23T01:15:31.346Z,8.33
2018-08-23T01:18:09.914Z,8.97
2018-08-23T01:20:38.874Z,14.40
2018-08-23T01:23:07.082Z,12.00
2018-08-23T01:25:36.758Z,17.13
2018-08-23T01:28:05.303Z,8.17
2018-08-23T01:30:33.866Z,8.17
2018-08-23T01:33:02.067Z,8.13
2018-08-23T01:35:30.246Z,8.90
2018-08-23T01:37:58.620Z,7.97
2018-08-23T01:40:26.810Z,12.63
2018-08-23T01:42:55.017Z,10.93
2018-08-23T01:45:23.222Z,10.17
2018-08-23T01:47:53.986Z,10.43
2018-08-23T01:50:22.242Z,11.90
2018-08-23T01:52:51.688Z,13.27
2018-08-23T01:55:20.748Z,11.53
2018-08-23T01:57:49.398Z,8.90
2018-08-23T02:00:18.555Z,9.53
2018-08-23T02:02:46.858Z,12.40
2018-08-23T02:05:15.058Z,10.87
2018-08-23T02:07:43.264Z,15.10
2018-08-23T02:10:11.531Z,10.87
2018-08-23T02:12:39.985Z,15.87
2018-08-23T02:15:10.235Z,11.97
2018-08-23T02:17:44.096Z,8.90
2018-08-23T02:20:12.498Z,10.97
2018-08-23T02:22:40.692Z,11.03
2018-08-23T02:25:09.051Z,10.70
2018-08-23T02:27:57.481Z,9.67
2018-08-23T02:30:40.923Z,9.50
2018-08-23T02:33:10.117Z,10.63
2018-08-23T02:35:38.399Z,12.83
2018-08-23T02:38:07.079Z,10.17
2018-08-23T02:40:36.697Z,9.47
2018-08-23T02:43:05.029Z,11.53
2018-08-23T02:45:39.315Z,14.77
2018-08-23T02:48:08.247Z,16.50
2018-08-23T02:50:36.447Z,12.17
2018-08-23T02:53:31.443Z,12.13
2018-08-23T02:56:04.488Z,9.93
2018-08-23T02:58:32.699Z,8.33
2018-08-23T03:01:04.640Z,11.00
2018-08-23T03:03:33.533Z,8.87
2018-08-23T03:06:01.730Z,10.47
2018-08-23T03:08:42.631Z,12.40
2018-08-23T03:11:10.999Z,9.97
2018-08-23T03:13:43.622Z,10.40
2018-08-23T03:16:12.232Z,12.53
2018-08-23T03:18:40.429Z,14.20
2018-08-23T03:21:08.813Z,12.57
2018-08-23T03:23:37.008Z,13.03
2018-08-23T03:26:05.203Z,12.30
2018-08-23T03:28:34.628Z,12.53
2018-08-23T03:31:03.680Z,11.83
2018-08-23T03:33:33.484Z,10.87
2018-08-23T03:36:01.670Z,9.90
2018-08-23T03:38:29.914Z,14.47
2018-08-23T03:40:58.185Z,10.83
2018-08-23T03:43:26.376Z,12.67
2018-08-23T03:45:57.149Z,11.03
2018-08-23T03:48:25.678Z,13.83
2018-08-23T03:50:54.208Z,12.70
2018-08-23T03:53:22.933Z,12.47
2018-08-23T03:56:06.515Z,13.17
2018-08-23T03:58:35.004Z,10.27
2018-08-23T04:01:04.676Z,12.67
2018-08-23T04:03:32.892Z,10.27
2018-08-23T04:06:43.530Z,13.67
2018-08-23T04:09:11.804Z,15.43
2018-08-23T04:11:40.065Z,17.23
2018-08-23T04:14:08.264Z,13.93
2018-08-23T04:16:36.572Z,11.50
2018-08-23T04:19:04.780Z,16.53
2018-08-23T04:21:32.985Z,9.83
2018-08-23T04:24:01.181Z,13.03
2018-08-23T04:26:29.383Z,8.90
2018-08-23T04:28:57.912Z,12.90
2018-08-23T04:31:26.131Z,8.80
2018-08-23T04:33:54.332Z,12.30
2018-08-23T04:36:28.472Z,11.87
2018-08-23T04:39:08.024Z,12.20
2018-08-23T04:41:36.226Z,12.83
2018-08-23T04:44:08.825Z,12.07
2018-08-23T04:46:37.047Z,10.77
2018-08-23T04:49:07.026Z,9.50
2018-08-23T04:51:36.260Z,9.33
2018-08-23T04:54:04.580Z,10.97
2018-08-23T04:56:32.998Z,9.97
2018-08-23T04:59:01.371Z,11.43
2018-08-23T05:01:29.592Z,9.77
2018-08-23T05:03:57.832Z,9.80
2018-08-23T05:06:25.996Z,11.73
2018-08-23T05:08:54.258Z,10.80
2018-08-23T05:11:22.444Z,10.87
2018-08-23T05:13:50.844Z,12.73
2018-08-23T05:16:19.040Z,10.37
2018-08-23T05:18:47.309Z,10.87
2018-08-23T05:21:15.492Z,14.50
2018-08-23T05:23:43.806Z,10.83
2018-08-23T05:26:14.772Z,9.57
2018-08-23T05:28:56.974Z,10.30
2018-08-23T05:31:25.653Z,10.50
2018-08-23T05:33:53.846Z,12.33
2018-08-23T05:36:22.053Z,12.30
2018-08-23T05:38:50.253Z,9.63
2018-08-23T05:41:19.040Z,11.10
2018-08-23T05:43:52.546Z,8.97
2018-08-23T05:46:20.874Z,7.40
2018-08-23T05:48:49.094Z,10.23
2018-08-23T05:51:17.306Z,10.23
2018-08-23T05:53:47.322Z,10.87
2018-08-23T05:56:15.540Z,17.13
2018-08-23T05:58:43.756Z,11.97
2018-08-23T06:01:11.946Z,12.70
2018-08-23T06:03:40.128Z,12.57
2018-08-23T06:06:08.626Z,18.73
2018-08-23T06:08:37.112Z,10.77
2018-08-23T06:11:08.152Z,8.50
2018-08-23T06:13:36.379Z,13.00
2018-08-23T06:16:04.602Z,14.57
2018-08-23T06:18:32.826Z,9.23
2018-08-23T06:21:01.030Z,14.10
2018-08-23T06:23:55.666Z,10.90
2018-08-23T06:26:42.034Z,13.87
2018-08-23T06:29:12.526Z,12.93
2018-08-23T06:31:57.525Z,19.10
2018-08-23T06:34:26.605Z,14.00
2018-08-23T06:36:54.814Z,13.73
2018-08-23T06:39:23.018Z,13.30
2018-08-23T06:41:53.996Z,13.30
2018-08-23T06:44:22.693Z,17.23
2018-08-23T06:46:50.871Z,17.73
2018-08-23T06:49:19.091Z,17.77
2018-08-23T06:51:52.207Z,16.77
2018-08-23T06:54:20.439Z,18.17
2018-08-23T06:56:48.678Z,15.67
2018-08-23T06:59:16.885Z,15.07
2018-08-23T07:01:47.010Z,13.00
2018-08-23T07:04:15.232Z,23.20
2018-08-23T07:06:43.480Z,14.40
2018-08-23T07:09:14.208Z,12.13
2018-08-23T07:11:42.696Z,18.93
2018-08-23T07:14:12.895Z,13.53
2018-08-23T07:16:42.211Z,14.70
2018-08-23T07:19:23.814Z,12.30
2018-08-23T07:21:52.838Z,11.83
2018-08-23T07:24:38.292Z,17.10
2018-08-23T07:27:07.973Z,11.03
2018-08-23T07:29:36.168Z,11.77
2018-08-23T07:32:06.244Z,16.20
2018-08-23T07:34:34.690Z,13.17
2018-08-23T07:37:08.379Z,12.90
2018-08-23T07:39:36.635Z,14.13
2018-08-23T07:42:04.827Z,12.90
2018-08-23T07:44:33.027Z,14.57
2018-08-23T07:47:01.755Z,10.67
2018-08-23T07:49:29.960Z,18.20
2018-08-23T07:51:58.153Z,13.60
2018-08-23T07:54:26.365Z,11.50
2018-08-23T07:56:54.559Z,11.47
2018-08-23T07:59:22.770Z,12.87
2018-08-23T08:01:50.959Z,13.13
2018-08-23T08:04:19.184Z,11.87
2018-08-23T08:06:47.394Z,11.80
2018-08-23T08:09:24.118Z,12.13
2018-08-23T08:11:57.563Z,15.07
2018-08-23T08:14:33.829Z,11.80
2018-08-23T08:17:16.321Z,14.47
2018-08-23T08:19:50.643Z,12.90
2018-08-23T08:22:20.259Z,13.87
2018-08-23T08:24:54.631Z,10.73
2018-08-23T08:27:22.830Z,11.87
2018-08-23T08:29:51.059Z,10.67
2018-08-23T08:32:19.231Z,11.17
2018-08-23T08:34:47.419Z,12.00
2018-08-23T08:37:15.625Z,17.57
2018-08-23T08:39:43.803Z,10.03
2018-08-23T08:42:12.032Z,12.03
2018-08-23T08:44:40.211Z,10.77
2018-08-23T08:47:08.443Z,14.30
2018-08-23T08:49:36.656Z,10.00
2018-08-23T08:52:04.856Z,10.80
2018-08-23T08:54:33.065Z,7.47
2018-08-23T08:57:01.304Z,7.03
2018-08-23T08:59:31.454Z,11.07
2018-08-23T09:01:59.935Z,7.27
2018-08-23T09:04:33.555Z,11.20
2018-08-23T09:07:01.750Z,9.70
2018-08-23T09:09:33.368Z,7.73
2018-08-23T09:12:03.697Z,6.50
2018-08-23T09:14:31.923Z,6.47
2018-08-23T09:17:01.793Z,10.97
2018-08-23T09:19:41.312Z,7.63
2018-08-23T09:22:14.953Z,6.57
2018-08-23T09:24:43.434Z,5.57
2018-08-23T09:27:17.352Z,5.83
2018-08-23T09:29:45.484Z,6.83
2018-08-23T09:32:30.308Z,5.57
2018-08-23T09:35:03.744Z,7.00
2018-08-23T09:37:36.170Z,6.93
2018-08-23T09:40:05.278Z,5.60
2018-08-23T09:42:34.712Z,5.20
2018-08-23T09:45:15.084Z,4.00
2018-08-23T09:47:43.328Z,4.30
2018-08-23T09:50:11.661Z,5.33
2018-08-23T09:52:43.552Z,5.43
2018-08-23T09:55:13.000Z,4.77
2018-08-23T09:57:41.574Z,6.33
2018-08-23T10:00:11.894Z,5.47
2018-08-23T10:02:45.452Z,4.60
2018-08-23T10:05:19.038Z,15.60
2018-08-23T10:07:52.586Z,6.00
2018-08-23T10:10:26.199Z,5.77
2018-08-23T10:12:59.732Z,8.30
2018-08-23T10:15:33.324Z,6.77
2018-08-23T10:18:06.842Z,7.17
2018-08-23T10:20:44.945Z,5.40
2018-08-23T10:23:23.962Z,6.47
2018-08-23T10:25:54.157Z,5.47
2018-08-23T10:28:24.662Z,4.70
2018-08-23T10:30:53.217Z,7.00
2018-08-23T10:33:21.392Z,7.70
2018-08-23T10:35:54.736Z,7.07
2018-08-23T10:38:25.137Z,5.90
2018-08-23T10:40:54.601Z,6.27
2018-08-23T10:43:28.015Z,5.70
2018-08-23T10:46:00.475Z,5.13
2018-08-23T10:48:28.706Z,4.60
2018-08-23T10:50:56.929Z,4.90
2018-08-23T10:53:25.140Z,5.13
2018-08-23T10:55:53.325Z,5.70
2018-08-23T10:58:21.524Z,4.60
2018-08-23T11:00:49.713Z,6.80
2018-08-23T11:03:17.907Z,5.70
2018-08-23T11:05:46.110Z,7.00
2018-08-23T11:08:19.767Z,6.43
2018-08-23T11:10:53.428Z,6.67
2018-08-23T11:13:27.072Z,5.30
2018-08-23T11:16:00.440Z,4.90
2018-08-23T11:18:34.142Z,5.83
2018-08-23T11:21:02.324Z,5.87
2018-08-23T11:23:30.540Z,5.83
2018-08-23T11:25:58.742Z,5.30
2018-08-23T11:28:27.538Z,7.13
2018-08-23T11:31:00.008Z,6.17
2018-08-23T11:33:28.224Z,4.80
2018-08-23T11:35:56.422Z,4.57
2018-08-23T11:38:24.693Z,4.57
2018-08-23T11:40:52.956Z,4.57
2018-08-23T11:43:21.166Z,4.20
2018-08-23T11:45:54.664Z,8.50
2018-08-23T11:48:22.867Z,7.33
2018-08-23T11:50:51.063Z,5.10
2018-08-23T11:53:19.364Z,4.83
2018-08-23T11:55:47.674Z,4.90
2018-08-23T11:58:15.905Z,3.97
2018-08-23T12:00:44.126Z,4.17
2018-08-23T12:03:12.320Z,9.20
2018-08-23T12:05:40.558Z,3.67
2018-08-23T12:08:09.036Z,3.87
2018-08-23T12:10:37.214Z,9.60
2018-08-23T12:13:05.496Z,3.37
2018-08-23T12:15:33.872Z,3.40
2018-08-23T12:18:02.062Z,3.10
2018-08-23T12:20:30.406Z,3.93
2018-08-23T12:22:58.622Z,3.30
2018-08-23T12:25:26.856Z,3.67
2018-08-23T12:27:58.340Z,3.73
2018-08-23T12:30:26.795Z,3.50
2018-08-23T12:32:55.022Z,3.37
2018-08-23T12:35:23.422Z,3.43
2018-08-23T12:37:59.887Z,3.30
2018-08-23T12:40:35.057Z,3.80
2018-08-23T12:43:09.983Z,4.93
2018-08-23T12:45:41.327Z,3.60
2018-08-23T12:48:10.730Z,3.93
2018-08-23T12:50:39.235Z,3.83
2018-08-23T12:53:07.439Z,3.60
2018-08-23T12:55:35.819Z,3.47
2018-08-23T12:58:08.327Z,3.23
2018-08-23T13:00:36.972Z,4.00
2018-08-23T13:03:05.697Z,4.00
2018-08-23T13:05:33.976Z,4.80
2018-08-23T13:08:02.291Z,3.80
2018-08-23T13:10:30.482Z,3.33
2018-08-23T13:12:58.762Z,3.70
2018-08-23T13:15:26.981Z,3.93
2018-08-23T13:17:55.490Z,3.70
2018-08-23T13:20:23.911Z,4.47
2018-08-23T13:22:52.117Z,5.10
2018-08-23T13:25:20.334Z,7.87
2018-08-23T13:27:48.517Z,4.07
2018-08-23T13:30:16.969Z,4.00
2018-08-23T13:32:45.057Z,4.50
2018-08-23T13:35:13.265Z,4.73
2018-08-23T13:37:41.485Z,3.90
2018-08-23T13:40:15.039Z,3.67
2018-08-23T13:42:43.267Z,3.83
2018-08-23T13:45:11.471Z,3.90
2018-08-23T13:47:39.721Z,3.50
2018-08-23T13:50:07.934Z,3.80
2018-08-23T13:52:36.156Z,3.60
2018-08-23T13:55:04.501Z,3.80
2018-08-23T13:57:32.713Z,5.43
2018-08-23T14:00:00.917Z,3.73
2018-08-23T14:02:29.138Z,3.60
2018-08-23T14:04:57.328Z,6.30
2018-08-23T14:07:25.535Z,4.30
2018-08-23T14:09:53.715Z,3.57
2018-08-23T14:12:22.061Z,6.70
2018-08-23T14:14:50.271Z,4.40
2018-08-23T14:17:18.456Z,3.80
2018-08-23T14:19:46.671Z,4.87
2018-08-23T14:22:14.883Z,4.57
2018-08-23T14:24:43.057Z,4.57
2018-08-23T14:27:11.279Z,5.40
2018-08-23T14:29:39.518Z,3.60
2018-08-23T14:32:07.709Z,5.40
2018-08-23T14:34:35.910Z,4.23
2018-08-23T14:37:04.123Z,4.00
2018-08-23T14:39:32.561Z,5.10
2018-08-23T14:42:00.749Z,4.20
2018-08-23T14:44:28.970Z,4.13
2018-08-23T14:47:02.447Z,5.43
2018-08-23T14:49:34.423Z,7.70
2018-08-23T14:52:03.203Z,4.33
2018-08-23T14:54:36.779Z,3.37
2018-08-23T14:57:10.399Z,6.73
2018-08-23T14:59:38.588Z,4.50
2018-08-23T15:02:07.036Z,5.10
2018-08-23T15:04:35.261Z,14.80
2018-08-23T15:07:03.488Z,5.50
2018-08-23T15:09:31.660Z,4.23
2018-08-23T15:12:00.949Z,3.70
2018-08-23T15:14:29.427Z,4.00
2018-08-23T15:16:57.653Z,3.50
2018-08-23T15:19:25.837Z,4.10
2018-08-23T15:21:54.074Z,6.00
2018-08-23T15:24:22.300Z,3.97
2018-08-23T15:26:50.607Z,5.20
2018-08-23T15:29:18.691Z,5.27
2018-08-23T15:31:46.893Z,4.70
2018-08-23T15:34:15.090Z,8.80
2018-08-23T15:36:43.268Z,7.97
2018-08-23T15:39:14.072Z,3.80
2018-08-23T15:41:42.396Z,4.23
2018-08-23T15:44:11.872Z,4.00
2018-08-23T15:46:43.742Z,4.37
2018-08-23T15:49:11.944Z,4.40
2018-08-23T15:51:40.717Z,4.83
2018-08-23T15:54:09.292Z,4.83
2018-08-23T15:56:38.017Z,4.90
2018-08-23T15:59:06.292Z,3.67
2018-08-23T16:01:34.663Z,5.10
2018-08-23T16:04:03.154Z,4.20
2018-08-23T16:06:31.350Z,5.83
2018-08-23T16:08:59.959Z,4.47
2018-08-23T16:11:28.212Z,4.73
2018-08-23T16:13:56.504Z,5.07
2018-08-23T16:16:29.976Z,3.80
2018-08-23T16:19:03.594Z,4.57
2018-08-23T16:21:34.584Z,3.93
2018-08-23T16:24:02.832Z,4.20
2018-08-23T16:26:36.350Z,4.10
2018-08-23T16:29:04.648Z,5.07
2018-08-23T16:31:32.856Z,4.23
2018-08-23T16:34:01.036Z,5.23
2018-08-23T16:36:29.276Z,5.03
2018-08-23T16:38:57.466Z,5.53
2018-08-23T16:41:25.663Z,4.07
2018-08-23T16:43:53.856Z,5.33
2018-08-23T16:46:22.067Z,4.70
2018-08-23T16:48:50.320Z,4.67
2018-08-23T16:51:18.511Z,4.73
2018-08-23T16:53:46.742Z,5.30
2018-08-23T16:56:14.956Z,4.47
2018-08-23T16:58:43.279Z,5.23
2018-08-23T17:01:11.432Z,5.33
2018-08-23T17:03:39.660Z,4.20
2018-08-23T17:06:07.962Z,5.03
2018-08-23T17:08:36.159Z,5.50
2018-08-23T17:11:04.384Z,5.70
2018-08-23T17:13:36.467Z,4.40
2018-08-23T17:16:11.024Z,3.90
2018-08-23T17:18:39.613Z,5.73
2018-08-23T17:21:07.920Z,7.40
2018-08-23T17:23:36.141Z,4.00
2018-08-23T17:26:04.370Z,4.97
2018-08-23T17:28:32.572Z,4.23
2018-08-23T17:31:01.330Z,3.90
2018-08-23T17:33:29.560Z,5.20
2018-08-23T17:35:57.770Z,4.57
2018-08-23T17:38:27.368Z,4.83
2018-08-23T17:40:55.542Z,4.87
2018-08-23T17:43:23.770Z,3.77
2018-08-23T17:45:52.158Z,5.87
2018-08-23T17:48:20.797Z,5.80
2018-08-23T17:50:48.974Z,4.70
2018-08-23T17:53:17.310Z,4.60
2018-08-23T17:55:45.542Z,4.07
2018-08-23T17:58:13.758Z,5.33
2018-08-23T18:00:41.951Z,4.37
2018-08-23T18:03:10.216Z,6.07
2018-08-23T18:05:39.071Z,6.73
2018-08-23T18:08:07.350Z,4.20
2018-08-23T18:10:35.530Z,5.10
2018-08-23T18:13:03.804Z,8.50
2018-08-23T18:15:37.410Z,7.00
2018-08-23T18:18:05.975Z,3.80
2018-08-23T18:20:34.216Z,4.43
2018-08-23T18:23:02.352Z,11.90
2018-08-23T18:25:30.853Z,7.13
2018-08-23T18:27:59.239Z,4.53
2018-08-23T18:30:27.448Z,4.40
2018-08-23T18:32:55.658Z,5.63
2018-08-23T18:35:23.880Z,4.17
2018-08-23T18:37:52.136Z,8.57
2018-08-23T18:40:20.353Z,7.43
2018-08-23T18:42:48.562Z,5.00
2018-08-23T18:45:16.758Z,12.77
2018-08-23T18:47:45.224Z,4.50
2018-08-23T18:50:13.631Z,4.77
2018-08-23T18:52:41.840Z,5.40
2018-08-23T18:55:10.080Z,5.00
2018-08-23T18:57:38.300Z,7.70
2018-08-23T19:00:06.924Z,5.93
2018-08-23T19:02:34.938Z,5.07
2018-08-23T19:05:03.228Z,3.83
2018-08-23T19:07:36.757Z,4.53
2018-08-23T19:10:05.005Z,4.33
2018-08-23T19:12:33.184Z,5.13
2018-08-23T19:15:01.378Z,5.23
2018-08-23T19:17:37.958Z,5.07
2018-08-23T19:20:06.533Z,5.80
2018-08-23T19:22:34.888Z,4.27
2018-08-23T19:25:03.193Z,8.63
2018-08-23T19:27:31.328Z,6.13
2018-08-23T19:29:59.513Z,4.23
2018-08-23T19:32:27.715Z,4.23
2018-08-23T19:34:55.936Z,4.47
2018-08-23T19:37:24.382Z,6.20
2018-08-23T19:39:53.068Z,4.33
2018-08-23T19:42:21.514Z,6.13
2018-08-23T19:44:55.110Z,4.40
2018-08-23T19:47:28.633Z,4.87
2018-08-23T19:49:58.145Z,4.37
2018-08-23T19:52:26.354Z,6.40
2018-08-23T19:54:54.829Z,5.40
2018-08-23T19:57:23.119Z,5.23
2018-08-23T19:59:51.338Z,5.20
2018-08-23T20:02:19.543Z,6.07
2018-08-23T20:04:47.757Z,4.90
2018-08-23T20:07:16.068Z,6.20
2018-08-23T20:09:44.267Z,4.50
2018-08-23T20:12:12.481Z,7.33
2018-08-23T20:14:40.674Z,4.93
2018-08-23T20:17:08.996Z,4.70
2018-08-23T20:19:37.191Z,5.37
2018-08-23T20:22:06.823Z,5.40
2018-08-23T20:24:35.504Z,7.43
2018-08-23T20:27:03.680Z,6.60
2018-08-23T20:29:31.894Z,4.27
2018-08-23T20:32:01.079Z,5.10
2018-08-23T20:34:29.331Z,4.70
2018-08-23T20:36:57.543Z,5.97
2018-08-23T20:39:25.867Z,5.40
2018-08-23T20:41:53.967Z,4.10
2018-08-23T20:44:22.280Z,4.63
2018-08-23T20:46:50.542Z,5.10
2018-08-23T20:49:18.685Z,5.30
2018-08-23T20:51:46.891Z,3.80
2018-08-23T20:54:15.117Z,4.63
2018-08-23T20:56:43.323Z,6.53
2018-08-23T20:59:11.517Z,3.73
2018-08-23T21:01:39.711Z,7.50
2018-08-23T21:04:08.003Z,6.90
2018-08-23T21:06:36.269Z,4.30
2018-08-23T21:09:07.789Z,4.43
2018-08-23T21:11:36.210Z,4.20
2018-08-23T21:14:04.385Z,5.50
2018-08-23T21:16:32.591Z,5.47
2018-08-23T21:19:00.807Z,9.63
2018-08-23T21:21:29.043Z,4.40
2018-08-23T21:23:57.255Z,7.07
2018-08-23T21:26:25.453Z,4.93
2018-08-23T21:28:53.747Z,4.80
2018-08-23T21:31:21.947Z,6.20
2018-08-23T21:33:50.169Z,5.10
2018-08-23T21:36:18.375Z,5.23
2018-08-23T21:38:46.577Z,8.87
2018-08-23T21:41:14.791Z,5.50
2018-08-23T21:43:42.997Z,6.20
2018-08-23T21:46:11.217Z,6.93
2018-08-23T21:48:39.447Z,6.27
2018-08-23T21:51:07.713Z,6.47
2018-08-23T21:53:35.920Z,5.70
2018-08-23T21:56:04.110Z,10.37
2018-08-23T21:58:32.406Z,5.17
2018-08-23T22:01:07.861Z,4.90
2018-08-23T22:03:36.427Z,4.33
2018-08-23T22:06:04.795Z,4.93
2018-08-23T22:08:33.419Z,4.03
2018-08-23T22:11:01.615Z,4.17
2018-08-23T22:13:30.031Z,4.53
2018-08-23T22:15:58.383Z,5.60
2018-08-23T22:18:26.633Z,4.13
2018-08-23T22:20:54.939Z,4.50
2018-08-23T22:23:23.135Z,4.60
2018-08-23T22:25:51.328Z,6.17
2018-08-23T22:28:19.603Z,4.87
2018-08-23T22:30:47.933Z,5.00
2018-08-23T22:33:16.166Z,5.20
2018-08-23T22:35:44.367Z,5.10
2018-08-23T22:38:12.639Z,5.10
2018-08-23T22:40:40.845Z,4.30
2018-08-23T22:43:09.077Z,14.30
2018-08-23T22:45:37.631Z,7.37
2018-08-23T22:48:06.441Z,6.10
2018-08-23T22:50:34.703Z,4.73
2018-08-23T22:53:02.917Z,4.13
2018-08-23T22:55:31.116Z,6.17
2018-08-23T22:57:59.615Z,6.50
2018-08-23T23:00:43.209Z,7.43
2018-08-23T23:03:16.851Z,5.10
2018-08-23T23:05:45.157Z,6.20
2018-08-23T23:08:13.471Z,9.67
2018-08-23T23:10:41.666Z,4.37
2018-08-23T23:13:09.896Z,4.90
2018-08-23T23:15:38.083Z,6.13
2018-08-23T23:18:06.357Z,5.53
2018-08-23T23:20:34.655Z,5.70
2018-08-23T23:23:03.005Z,5.40
2018-08-23T23:25:31.188Z,6.80
2018-08-23T23:27:59.587Z,6.20
2018-08-23T23:30:27.779Z,5.80
2018-08-23T23:32:55.980Z,6.47
2018-08-23T23:35:24.161Z,4.70
2018-08-23T23:37:52.420Z,6.53
2018-08-23T23:40:20.647Z,13.93
2018-08-23T23:42:48.857Z,5.10
2018-08-23T23:45:17.023Z,5.00
2018-08-23T23:47:45.236Z,7.37
2018-08-23T23:50:13.505Z,5.30
2018-08-23T23:52:41.705Z,4.80
2018-08-23T23:55:09.891Z,5.03
2018-08-23T23:57:38.077Z,5.43
